sensor_id;sensor_type;location;lat;lon;timestamp;P1;durP1;ratioP1;P2;durP2;ratioP2
49972;SDS011;71845;49.798;10.968;2024-01-16T00:00:07;6.57;;;3.13;;
49972;SDS011;71845;49.798;10.968;2024-01-16T00:02:34;5.18;;;2.72;;
49972;SDS011;71845;49.798;10.968;2024-01-16T00:05:01;6.70;;;2.83;;
49972;SDS011;71845;49.798;10.968;2024-01-16T00:07:29;7.55;;;3.00;;
49972;SDS011;71845;49.798;10.968;2024-01-16T00:09:57;5.75;;;2.58;;
49972;SDS011;71845;49.798;10.968;2024-01-16T00:12:23;5.43;;;2.47;;
49972;SDS011;71845;49.798;10.968;2024-01-16T00:14:50;5.60;;;2.38;;
49972;SDS011;71845;49.798;10.968;2024-01-16T00:17:16;6.28;;;2.50;;
49972;SDS011;71845;49.798;10.968;2024-01-16T00:19:43;8.55;;;2.47;;
49972;SDS011;71845;49.798;10.968;2024-01-16T00:22:09;8.68;;;2.65;;
49972;SDS011;71845;49.798;10.968;2024-01-16T00:24:37;4.60;;;2.30;;
49972;SDS011;71845;49.798;10.968;2024-01-16T00:27:04;4.90;;;2.20;;
49972;SDS011;71845;49.798;10.968;2024-01-16T00:29:30;6.20;;;2.30;;
49972;SDS011;71845;49.798;10.968;2024-01-16T00:31:57;5.65;;;2.88;;
49972;SDS011;71845;49.798;10.968;2024-01-16T00:34:23;4.20;;;2.38;;
49972;SDS011;71845;49.798;10.968;2024-01-16T00:36:50;6.03;;;2.83;;
49972;SDS011;71845;49.798;10.968;2024-01-16T00:39:16;5.78;;;2.15;;
49972;SDS011;71845;49.798;10.968;2024-01-16T00:41:44;5.45;;;2.45;;
49972;SDS011;71845;49.798;10.968;2024-01-16T00:44:11;4.97;;;1.88;;
49972;SDS011;71845;49.798;10.968;2024-01-16T00:46:37;6.15;;;2.47;;
49972;SDS011;71845;49.798;10.968;2024-01-16T00:49:03;4.10;;;2.05;;
49972;SDS011;71845;49.798;10.968;2024-01-16T00:51:31;3.75;;;2.17;;
49972;SDS011;71845;49.798;10.968;2024-01-16T00:53:58;5.00;;;2.15;;
49972;SDS011;71845;49.798;10.968;2024-01-16T00:56:24;6.38;;;2.13;;
49972;SDS011;71845;49.798;10.968;2024-01-16T00:58:54;5.78;;;2.42;;
49972;SDS011;71845;49.798;10.968;2024-01-16T01:01:20;6.25;;;2.10;;
49972;SDS011;71845;49.798;10.968;2024-01-16T01:03:47;3.15;;;1.90;;
49972;SDS011;71845;49.798;10.968;2024-01-16T01:06:13;5.82;;;2.50;;
49972;SDS011;71845;49.798;10.968;2024-01-16T01:08:40;5.28;;;2.50;;
49972;SDS011;71845;49.798;10.968;2024-01-16T01:11:06;7.32;;;2.13;;
49972;SDS011;71845;49.798;10.968;2024-01-16T01:13:33;5.03;;;1.85;;
49972;SDS011;71845;49.798;10.968;2024-01-16T01:16:01;3.97;;;2.15;;
49972;SDS011;71845;49.798;10.968;2024-01-16T01:18:27;8.13;;;2.58;;
49972;SDS011;71845;49.798;10.968;2024-01-16T01:20:54;6.05;;;2.63;;
49972;SDS011;71845;49.798;10.968;2024-01-16T01:23:21;4.47;;;2.00;;
49972;SDS011;71845;49.798;10.968;2024-01-16T01:25:47;5.60;;;2.50;;
49972;SDS011;71845;49.798;10.968;2024-01-16T01:28:13;5.43;;;2.55;;
49972;SDS011;71845;49.798;10.968;2024-01-16T01:30:40;9.23;;;2.53;;
49972;SDS011;71845;49.798;10.968;2024-01-16T01:33:08;7.50;;;2.33;;
49972;SDS011;71845;49.798;10.968;2024-01-16T01:35:35;6.25;;;2.08;;
49972;SDS011;71845;49.798;10.968;2024-01-16T01:38:01;5.30;;;2.25;;
49972;SDS011;71845;49.798;10.968;2024-01-16T01:40:28;4.47;;;1.80;;
49972;SDS011;71845;49.798;10.968;2024-01-16T01:42:54;5.35;;;2.53;;
49972;SDS011;71845;49.798;10.968;2024-01-16T01:45:21;5.22;;;2.70;;
49972;SDS011;71845;49.798;10.968;2024-01-16T01:47:47;4.18;;;2.17;;
49972;SDS011;71845;49.798;10.968;2024-01-16T01:50:16;4.90;;;2.20;;
49972;SDS011;71845;49.798;10.968;2024-01-16T01:52:43;8.13;;;1.95;;
49972;SDS011;71845;49.798;10.968;2024-01-16T01:55:11;2.97;;;1.77;;
49972;SDS011;71845;49.798;10.968;2024-01-16T01:57:39;4.10;;;2.38;;
49972;SDS011;71845;49.798;10.968;2024-01-16T02:00:08;3.95;;;2.00;;
49972;SDS011;71845;49.798;10.968;2024-01-16T02:02:35;6.45;;;2.75;;
49972;SDS011;71845;49.798;10.968;2024-01-16T02:05:02;7.30;;;2.58;;
49972;SDS011;71845;49.798;10.968;2024-01-16T02:07:31;7.28;;;2.45;;
49972;SDS011;71845;49.798;10.968;2024-01-16T02:09:59;4.90;;;2.40;;
49972;SDS011;71845;49.798;10.968;2024-01-16T02:12:26;4.32;;;2.20;;
49972;SDS011;71845;49.798;10.968;2024-01-16T02:14:53;5.57;;;1.95;;
49972;SDS011;71845;49.798;10.968;2024-01-16T02:17:19;4.60;;;2.30;;
49972;SDS011;71845;49.798;10.968;2024-01-16T02:19:45;5.68;;;2.22;;
49972;SDS011;71845;49.798;10.968;2024-01-16T02:22:13;4.57;;;2.40;;
49972;SDS011;71845;49.798;10.968;2024-01-16T02:24:47;4.68;;;2.30;;
49972;SDS011;71845;49.798;10.968;2024-01-16T02:27:14;4.00;;;2.40;;
49972;SDS011;71845;49.798;10.968;2024-01-16T02:29:40;3.53;;;1.90;;
49972;SDS011;71845;49.798;10.968;2024-01-16T02:32:08;3.90;;;2.25;;
49972;SDS011;71845;49.798;10.968;2024-01-16T02:34:35;5.38;;;2.30;;
49972;SDS011;71845;49.798;10.968;2024-01-16T02:37:01;5.68;;;2.55;;
49972;SDS011;71845;49.798;10.968;2024-01-16T02:39:27;7.35;;;2.60;;
49972;SDS011;71845;49.798;10.968;2024-01-16T02:41:55;5.75;;;2.22;;
49972;SDS011;71845;49.798;10.968;2024-01-16T02:44:22;4.90;;;2.50;;
49972;SDS011;71845;49.798;10.968;2024-01-16T02:46:48;4.90;;;2.50;;
49972;SDS011;71845;49.798;10.968;2024-01-16T02:49:15;6.55;;;2.65;;
49972;SDS011;71845;49.798;10.968;2024-01-16T02:51:41;5.65;;;2.83;;
49972;SDS011;71845;49.798;10.968;2024-01-16T02:54:09;4.80;;;2.45;;
49972;SDS011;71845;49.798;10.968;2024-01-16T02:56:35;4.68;;;2.33;;
49972;SDS011;71845;49.798;10.968;2024-01-16T02:59:03;6.30;;;3.00;;
49972;SDS011;71845;49.798;10.968;2024-01-16T03:01:29;5.78;;;2.60;;
49972;SDS011;71845;49.798;10.968;2024-01-16T03:03:56;4.53;;;2.50;;
49972;SDS011;71845;49.798;10.968;2024-01-16T03:06:22;5.78;;;2.78;;
49972;SDS011;71845;49.798;10.968;2024-01-16T03:08:49;4.78;;;2.55;;
49972;SDS011;71845;49.798;10.968;2024-01-16T03:11:16;5.60;;;2.50;;
49972;SDS011;71845;49.798;10.968;2024-01-16T03:13:42;5.13;;;2.65;;
49972;SDS011;71845;49.798;10.968;2024-01-16T03:16:11;9.15;;;2.97;;
49972;SDS011;71845;49.798;10.968;2024-01-16T03:18:37;7.55;;;2.80;;
49972;SDS011;71845;49.798;10.968;2024-01-16T03:21:05;7.70;;;2.80;;
49972;SDS011;71845;49.798;10.968;2024-01-16T03:23:32;6.03;;;2.67;;
49972;SDS011;71845;49.798;10.968;2024-01-16T03:25:59;5.95;;;2.67;;
49972;SDS011;71845;49.798;10.968;2024-01-16T03:28:25;9.55;;;3.10;;
49972;SDS011;71845;49.798;10.968;2024-01-16T03:30:52;8.48;;;3.08;;
49972;SDS011;71845;49.798;10.968;2024-01-16T03:33:20;7.25;;;2.80;;
49972;SDS011;71845;49.798;10.968;2024-01-16T03:35:46;8.60;;;3.45;;
49972;SDS011;71845;49.798;10.968;2024-01-16T03:38:13;5.30;;;2.53;;
49972;SDS011;71845;49.798;10.968;2024-01-16T03:40:39;6.60;;;3.60;;
49972;SDS011;71845;49.798;10.968;2024-01-16T03:43:06;5.28;;;2.58;;
49972;SDS011;71845;49.798;10.968;2024-01-16T03:45:33;6.00;;;2.97;;
49972;SDS011;71845;49.798;10.968;2024-01-16T03:47:59;7.13;;;2.60;;
49972;SDS011;71845;49.798;10.968;2024-01-16T03:50:27;5.45;;;2.90;;
49972;SDS011;71845;49.798;10.968;2024-01-16T03:52:53;8.05;;;3.33;;
49972;SDS011;71845;49.798;10.968;2024-01-16T03:55:20;5.97;;;3.05;;
49972;SDS011;71845;49.798;10.968;2024-01-16T03:57:46;6.50;;;3.25;;
49972;SDS011;71845;49.798;10.968;2024-01-16T04:00:13;6.05;;;3.35;;
49972;SDS011;71845;49.798;10.968;2024-01-16T04:02:39;7.75;;;3.08;;
49972;SDS011;71845;49.798;10.968;2024-01-16T04:05:06;8.15;;;3.15;;
49972;SDS011;71845;49.798;10.968;2024-01-16T04:07:34;6.20;;;3.13;;
49972;SDS011;71845;49.798;10.968;2024-01-16T04:10:01;7.63;;;3.30;;
49972;SDS011;71845;49.798;10.968;2024-01-16T04:12:30;8.20;;;3.45;;
49972;SDS011;71845;49.798;10.968;2024-01-16T04:14:56;5.22;;;2.97;;
49972;SDS011;71845;49.798;10.968;2024-01-16T04:17:23;6.38;;;3.25;;
49972;SDS011;71845;49.798;10.968;2024-01-16T04:19:49;5.80;;;4.25;;
49972;SDS011;71845;49.798;10.968;2024-01-16T04:22:16;11.32;;;4.03;;
49972;SDS011;71845;49.798;10.968;2024-01-16T04:24:43;6.25;;;4.93;;
49972;SDS011;71845;49.798;10.968;2024-01-16T04:27:10;6.70;;;3.22;;
49972;SDS011;71845;49.798;10.968;2024-01-16T04:29:37;4.60;;;2.75;;
49972;SDS011;71845;49.798;10.968;2024-01-16T04:32:04;6.47;;;5.18;;
49972;SDS011;71845;49.798;10.968;2024-01-16T04:34:31;7.47;;;2.83;;
49972;SDS011;71845;49.798;10.968;2024-01-16T04:36:57;7.18;;;3.83;;
49972;SDS011;71845;49.798;10.968;2024-01-16T04:39:23;7.82;;;4.25;;
49972;SDS011;71845;49.798;10.968;2024-01-16T04:41:51;10.02;;;3.33;;
49972;SDS011;71845;49.798;10.968;2024-01-16T04:44:18;6.80;;;3.40;;
49972;SDS011;71845;49.798;10.968;2024-01-16T04:46:44;7.00;;;3.40;;
49972;SDS011;71845;49.798;10.968;2024-01-16T04:49:11;10.07;;;4.03;;
49972;SDS011;71845;49.798;10.968;2024-01-16T04:51:37;6.22;;;3.20;;
49972;SDS011;71845;49.798;10.968;2024-01-16T04:54:04;10.32;;;3.50;;
49972;SDS011;71845;49.798;10.968;2024-01-16T04:56:30;5.35;;;3.30;;
49972;SDS011;71845;49.798;10.968;2024-01-16T04:58:58;5.75;;;2.92;;
49972;SDS011;71845;49.798;10.968;2024-01-16T05:01:25;6.93;;;3.17;;
49972;SDS011;71845;49.798;10.968;2024-01-16T05:03:51;6.68;;;3.53;;
49972;SDS011;71845;49.798;10.968;2024-01-16T05:06:18;7.03;;;3.28;;
49972;SDS011;71845;49.798;10.968;2024-01-16T05:08:44;7.03;;;3.50;;
49972;SDS011;71845;49.798;10.968;2024-01-16T05:11:11;6.57;;;3.38;;
49972;SDS011;71845;49.798;10.968;2024-01-16T05:13:37;7.38;;;3.65;;
49972;SDS011;71845;49.798;10.968;2024-01-16T05:16:05;6.90;;;3.33;;
49972;SDS011;71845;49.798;10.968;2024-01-16T05:18:32;6.60;;;3.22;;
49972;SDS011;71845;49.798;10.968;2024-01-16T05:20:58;8.35;;;4.00;;
49972;SDS011;71845;49.798;10.968;2024-01-16T05:23:25;7.72;;;3.97;;
49972;SDS011;71845;49.798;10.968;2024-01-16T05:25:52;6.35;;;3.90;;
49972;SDS011;71845;49.798;10.968;2024-01-16T05:28:18;6.40;;;3.22;;
49972;SDS011;71845;49.798;10.968;2024-01-16T05:30:45;7.45;;;3.53;;
49972;SDS011;71845;49.798;10.968;2024-01-16T05:33:13;5.25;;;3.25;;
49972;SDS011;71845;49.798;10.968;2024-01-16T05:35:39;7.65;;;3.35;;
49972;SDS011;71845;49.798;10.968;2024-01-16T05:38:06;7.47;;;3.45;;
49972;SDS011;71845;49.798;10.968;2024-01-16T05:40:32;7.32;;;3.53;;
49972;SDS011;71845;49.798;10.968;2024-01-16T05:42:59;8.10;;;3.38;;
49972;SDS011;71845;49.798;10.968;2024-01-16T05:45:26;4.95;;;3.05;;
49972;SDS011;71845;49.798;10.968;2024-01-16T05:47:53;7.35;;;3.53;;
49972;SDS011;71845;49.798;10.968;2024-01-16T05:50:21;7.72;;;4.05;;
49972;SDS011;71845;49.798;10.968;2024-01-16T05:52:48;7.32;;;4.18;;
49972;SDS011;71845;49.798;10.968;2024-01-16T05:55:15;8.57;;;3.63;;
49972;SDS011;71845;49.798;10.968;2024-01-16T05:57:41;8.25;;;3.65;;
49972;SDS011;71845;49.798;10.968;2024-01-16T06:00:08;12.93;;;4.35;;
49972;SDS011;71845;49.798;10.968;2024-01-16T06:02:36;8.85;;;3.80;;
49972;SDS011;71845;49.798;10.968;2024-01-16T06:05:02;7.47;;;3.88;;
49972;SDS011;71845;49.798;10.968;2024-01-16T06:07:32;7.35;;;3.58;;
49972;SDS011;71845;49.798;10.968;2024-01-16T06:09:58;8.38;;;3.72;;
49972;SDS011;71845;49.798;10.968;2024-01-16T06:12:25;7.20;;;4.30;;
49972;SDS011;71845;49.798;10.968;2024-01-16T06:14:51;6.53;;;3.05;;
49972;SDS011;71845;49.798;10.968;2024-01-16T06:17:18;7.55;;;3.13;;
49972;SDS011;71845;49.798;10.968;2024-01-16T06:19:44;7.93;;;3.35;;
49972;SDS011;71845;49.798;10.968;2024-01-16T06:22:12;4.88;;;2.92;;
49972;SDS011;71845;49.798;10.968;2024-01-16T06:24:39;6.45;;;3.40;;
49972;SDS011;71845;49.798;10.968;2024-01-16T06:27:06;9.57;;;3.00;;
49972;SDS011;71845;49.798;10.968;2024-01-16T06:29:32;7.72;;;3.75;;
49972;SDS011;71845;49.798;10.968;2024-01-16T06:31:59;8.73;;;3.47;;
49972;SDS011;71845;49.798;10.968;2024-01-16T06:34:25;7.45;;;3.88;;
49972;SDS011;71845;49.798;10.968;2024-01-16T06:36:52;8.95;;;4.28;;
49972;SDS011;71845;49.798;10.968;2024-01-16T06:39:19;7.47;;;4.38;;
49972;SDS011;71845;49.798;10.968;2024-01-16T06:41:47;6.75;;;3.85;;
49972;SDS011;71845;49.798;10.968;2024-01-16T06:44:13;10.63;;;3.83;;
49972;SDS011;71845;49.798;10.968;2024-01-16T06:46:40;6.93;;;3.60;;
49972;SDS011;71845;49.798;10.968;2024-01-16T06:49:06;6.95;;;3.72;;
49972;SDS011;71845;49.798;10.968;2024-01-16T06:51:33;9.07;;;4.25;;
49972;SDS011;71845;49.798;10.968;2024-01-16T06:54:00;7.07;;;3.35;;
49972;SDS011;71845;49.798;10.968;2024-01-16T06:56:26;8.00;;;3.30;;
49972;SDS011;71845;49.798;10.968;2024-01-16T06:58:54;8.52;;;4.00;;
49972;SDS011;71845;49.798;10.968;2024-01-16T07:01:21;8.10;;;3.42;;
49972;SDS011;71845;49.798;10.968;2024-01-16T07:03:48;6.10;;;2.88;;
49972;SDS011;71845;49.798;10.968;2024-01-16T07:06:14;7.97;;;3.40;;
49972;SDS011;71845;49.798;10.968;2024-01-16T07:08:41;11.63;;;4.25;;
49972;SDS011;71845;49.798;10.968;2024-01-16T07:11:07;5.75;;;3.42;;
49972;SDS011;71845;49.798;10.968;2024-01-16T07:13:38;6.07;;;3.30;;
49972;SDS011;71845;49.798;10.968;2024-01-16T07:16:06;8.00;;;4.00;;
49972;SDS011;71845;49.798;10.968;2024-01-16T07:18:32;7.32;;;3.95;;
49972;SDS011;71845;49.798;10.968;2024-01-16T07:20:59;6.95;;;3.90;;
49972;SDS011;71845;49.798;10.968;2024-01-16T07:23:26;6.20;;;3.28;;
49972;SDS011;71845;49.798;10.968;2024-01-16T07:25:53;6.90;;;3.50;;
49972;SDS011;71845;49.798;10.968;2024-01-16T07:28:19;9.80;;;3.33;;
49972;SDS011;71845;49.798;10.968;2024-01-16T07:30:47;7.80;;;3.53;;
49972;SDS011;71845;49.798;10.968;2024-01-16T07:33:15;9.75;;;3.97;;
49972;SDS011;71845;49.798;10.968;2024-01-16T07:35:41;9.70;;;3.90;;
49972;SDS011;71845;49.798;10.968;2024-01-16T07:38:13;5.53;;;3.72;;
49972;SDS011;71845;49.798;10.968;2024-01-16T07:40:39;7.95;;;3.08;;
49972;SDS011;71845;49.798;10.968;2024-01-16T07:43:06;7.63;;;3.55;;
49972;SDS011;71845;49.798;10.968;2024-01-16T07:45:32;6.13;;;3.25;;
49972;SDS011;71845;49.798;10.968;2024-01-16T07:47:59;7.13;;;3.78;;
49972;SDS011;71845;49.798;10.968;2024-01-16T07:50:27;6.05;;;3.22;;
49972;SDS011;71845;49.798;10.968;2024-01-16T07:52:53;7.05;;;3.47;;
49972;SDS011;71845;49.798;10.968;2024-01-16T07:55:20;8.75;;;3.22;;
49972;SDS011;71845;49.798;10.968;2024-01-16T07:57:46;8.02;;;3.22;;
49972;SDS011;71845;49.798;10.968;2024-01-16T08:00:13;9.73;;;3.85;;
49972;SDS011;71845;49.798;10.968;2024-01-16T08:02:40;6.10;;;3.50;;
49972;SDS011;71845;49.798;10.968;2024-01-16T08:05:07;10.60;;;3.75;;
49972;SDS011;71845;49.798;10.968;2024-01-16T08:07:35;11.05;;;3.63;;
49972;SDS011;71845;49.798;10.968;2024-01-16T08:10:02;6.95;;;3.47;;
49972;SDS011;71845;49.798;10.968;2024-01-16T08:12:29;9.25;;;3.53;;
49972;SDS011;71845;49.798;10.968;2024-01-16T08:14:55;9.73;;;3.47;;
49972;SDS011;71845;49.798;10.968;2024-01-16T08:17:21;8.77;;;3.80;;
49972;SDS011;71845;49.798;10.968;2024-01-16T08:19:48;9.23;;;3.80;;
49972;SDS011;71845;49.798;10.968;2024-01-16T08:22:14;7.03;;;3.30;;
49972;SDS011;71845;49.798;10.968;2024-01-16T08:24:42;7.10;;;3.53;;
49972;SDS011;71845;49.798;10.968;2024-01-16T08:27:09;8.63;;;3.97;;
49972;SDS011;71845;49.798;10.968;2024-01-16T08:29:35;5.78;;;3.17;;
49972;SDS011;71845;49.798;10.968;2024-01-16T08:32:02;6.95;;;3.60;;
49972;SDS011;71845;49.798;10.968;2024-01-16T08:34:29;8.70;;;4.68;;
49972;SDS011;71845;49.798;10.968;2024-01-16T08:36:55;8.45;;;4.30;;
49972;SDS011;71845;49.798;10.968;2024-01-16T08:39:22;7.00;;;3.85;;
49972;SDS011;71845;49.798;10.968;2024-01-16T08:41:50;10.63;;;4.45;;
49972;SDS011;71845;49.798;10.968;2024-01-16T08:44:17;8.85;;;4.28;;
49972;SDS011;71845;49.798;10.968;2024-01-16T08:46:43;9.32;;;4.47;;
49972;SDS011;71845;49.798;10.968;2024-01-16T08:49:11;7.43;;;4.47;;
49972;SDS011;71845;49.798;10.968;2024-01-16T08:51:38;8.48;;;4.13;;
49972;SDS011;71845;49.798;10.968;2024-01-16T08:54:06;9.55;;;4.45;;
49972;SDS011;71845;49.798;10.968;2024-01-16T08:56:32;9.57;;;4.70;;
49972;SDS011;71845;49.798;10.968;2024-01-16T08:59:00;10.50;;;4.93;;
49972;SDS011;71845;49.798;10.968;2024-01-16T09:01:27;10.70;;;5.50;;
49972;SDS011;71845;49.798;10.968;2024-01-16T09:03:53;24.38;;;10.43;;
49972;SDS011;71845;49.798;10.968;2024-01-16T09:06:20;19.50;;;9.13;;
49972;SDS011;71845;49.798;10.968;2024-01-16T09:08:46;10.00;;;5.22;;
49972;SDS011;71845;49.798;10.968;2024-01-16T09:11:13;11.30;;;5.30;;
49972;SDS011;71845;49.798;10.968;2024-01-16T09:13:39;11.77;;;4.63;;
49972;SDS011;71845;49.798;10.968;2024-01-16T09:16:08;10.52;;;7.47;;
49972;SDS011;71845;49.798;10.968;2024-01-16T09:18:34;9.90;;;6.03;;
49972;SDS011;71845;49.798;10.968;2024-01-16T09:21:01;9.00;;;6.72;;
49972;SDS011;71845;49.798;10.968;2024-01-16T09:23:27;8.98;;;4.55;;
49972;SDS011;71845;49.798;10.968;2024-01-16T09:25:53;8.77;;;3.95;;
49972;SDS011;71845;49.798;10.968;2024-01-16T09:28:20;7.28;;;3.40;;
49972;SDS011;71845;49.798;10.968;2024-01-16T09:30:46;8.55;;;4.18;;
49972;SDS011;71845;49.798;10.968;2024-01-16T09:33:14;10.43;;;4.18;;
49972;SDS011;71845;49.798;10.968;2024-01-16T09:35:41;9.30;;;4.47;;
49972;SDS011;71845;49.798;10.968;2024-01-16T09:38:08;7.07;;;3.88;;
49972;SDS011;71845;49.798;10.968;2024-01-16T09:40:35;9.32;;;3.88;;
49972;SDS011;71845;49.798;10.968;2024-01-16T09:43:02;6.65;;;3.78;;
49972;SDS011;71845;49.798;10.968;2024-01-16T09:45:29;7.25;;;3.35;;
49972;SDS011;71845;49.798;10.968;2024-01-16T09:47:58;10.32;;;4.15;;
49972;SDS011;71845;49.798;10.968;2024-01-16T09:50:27;12.07;;;4.28;;
49972;SDS011;71845;49.798;10.968;2024-01-16T09:52:54;10.40;;;4.40;;
49972;SDS011;71845;49.798;10.968;2024-01-16T09:55:20;7.28;;;2.67;;
49972;SDS011;71845;49.798;10.968;2024-01-16T09:57:47;8.52;;;4.38;;
49972;SDS011;71845;49.798;10.968;2024-01-16T10:00:17;10.75;;;4.13;;
49972;SDS011;71845;49.798;10.968;2024-01-16T10:02:45;9.52;;;4.68;;
49972;SDS011;71845;49.798;10.968;2024-01-16T10:05:12;10.93;;;3.95;;
49972;SDS011;71845;49.798;10.968;2024-01-16T10:07:41;10.23;;;4.13;;
49972;SDS011;71845;49.798;10.968;2024-01-16T10:10:09;7.05;;;3.97;;
49972;SDS011;71845;49.798;10.968;2024-01-16T10:12:37;6.95;;;3.90;;
49972;SDS011;71845;49.798;10.968;2024-01-16T10:15:05;10.15;;;4.38;;
49972;SDS011;71845;49.798;10.968;2024-01-16T10:17:37;7.40;;;3.45;;
49972;SDS011;71845;49.798;10.968;2024-01-16T10:20:04;9.60;;;4.00;;
49972;SDS011;71845;49.798;10.968;2024-01-16T10:22:32;11.02;;;4.20;;
49972;SDS011;71845;49.798;10.968;2024-01-16T10:25:06;7.03;;;3.17;;
49972;SDS011;71845;49.798;10.968;2024-01-16T10:27:35;7.28;;;3.78;;
49972;SDS011;71845;49.798;10.968;2024-01-16T10:30:02;8.57;;;4.35;;
49972;SDS011;71845;49.798;10.968;2024-01-16T10:32:30;9.43;;;4.35;;
49972;SDS011;71845;49.798;10.968;2024-01-16T10:35:04;7.60;;;3.70;;
49972;SDS011;71845;49.798;10.968;2024-01-16T10:37:40;9.35;;;4.00;;
49972;SDS011;71845;49.798;10.968;2024-01-16T10:40:09;7.13;;;3.30;;
49972;SDS011;71845;49.798;10.968;2024-01-16T10:42:36;8.07;;;3.28;;
49972;SDS011;71845;49.798;10.968;2024-01-16T10:45:03;7.40;;;3.28;;
49972;SDS011;71845;49.798;10.968;2024-01-16T10:47:30;8.07;;;3.80;;
49972;SDS011;71845;49.798;10.968;2024-01-16T10:49:59;10.55;;;4.47;;
49972;SDS011;71845;49.798;10.968;2024-01-16T10:52:27;8.50;;;4.05;;
49972;SDS011;71845;49.798;10.968;2024-01-16T10:54:54;7.25;;;3.80;;
49972;SDS011;71845;49.798;10.968;2024-01-16T10:57:27;10.45;;;4.35;;
49972;SDS011;71845;49.798;10.968;2024-01-16T10:59:59;9.07;;;4.55;;
49972;SDS011;71845;49.798;10.968;2024-01-16T11:02:32;7.22;;;4.07;;
49972;SDS011;71845;49.798;10.968;2024-01-16T11:05:05;7.47;;;3.60;;
49972;SDS011;71845;49.798;10.968;2024-01-16T11:07:33;8.30;;;3.75;;
49972;SDS011;71845;49.798;10.968;2024-01-16T11:10:02;8.48;;;3.97;;
49972;SDS011;71845;49.798;10.968;2024-01-16T11:12:30;8.70;;;4.00;;
49972;SDS011;71845;49.798;10.968;2024-01-16T11:14:59;9.68;;;3.97;;
49972;SDS011;71845;49.798;10.968;2024-01-16T11:17:27;7.55;;;4.05;;
49972;SDS011;71845;49.798;10.968;2024-01-16T11:19:55;8.00;;;4.00;;
49972;SDS011;71845;49.798;10.968;2024-01-16T11:22:23;6.63;;;3.88;;
49972;SDS011;71845;49.798;10.968;2024-01-16T11:25:06;11.93;;;4.68;;
49972;SDS011;71845;49.798;10.968;2024-01-16T11:27:35;8.05;;;4.25;;
49972;SDS011;71845;49.798;10.968;2024-01-16T11:30:02;8.82;;;4.20;;
49972;SDS011;71845;49.798;10.968;2024-01-16T11:32:32;9.73;;;3.47;;
49972;SDS011;71845;49.798;10.968;2024-01-16T11:35:00;9.82;;;3.90;;
49972;SDS011;71845;49.798;10.968;2024-01-16T11:37:27;7.65;;;3.42;;
49972;SDS011;71845;49.798;10.968;2024-01-16T11:42:51;8.52;;;4.30;;
49972;SDS011;71845;49.798;10.968;2024-01-16T11:48:17;9.75;;;4.47;;
49972;SDS011;71845;49.798;10.968;2024-01-16T11:50:44;9.68;;;3.80;;
49972;SDS011;71845;49.798;10.968;2024-01-16T11:53:18;9.02;;;3.60;;
49972;SDS011;71845;49.798;10.968;2024-01-16T11:56:01;5.57;;;3.10;;
49972;SDS011;71845;49.798;10.968;2024-01-16T11:58:43;7.03;;;3.67;;
49972;SDS011;71845;49.798;10.968;2024-01-16T12:01:14;9.32;;;3.88;;
49972;SDS011;71845;49.798;10.968;2024-01-16T12:03:44;9.27;;;3.90;;
49972;SDS011;71845;49.798;10.968;2024-01-16T12:06:11;5.95;;;3.33;;
49972;SDS011;71845;49.798;10.968;2024-01-16T12:08:42;9.10;;;3.83;;
49972;SDS011;71845;49.798;10.968;2024-01-16T12:11:08;5.72;;;3.22;;
49972;SDS011;71845;49.798;10.968;2024-01-16T12:13:35;8.23;;;3.83;;
49972;SDS011;71845;49.798;10.968;2024-01-16T12:16:03;9.77;;;4.07;;
49972;SDS011;71845;49.798;10.968;2024-01-16T12:18:30;7.15;;;3.45;;
49972;SDS011;71845;49.798;10.968;2024-01-16T12:20:57;9.75;;;4.32;;
49972;SDS011;71845;49.798;10.968;2024-01-16T12:23:23;8.32;;;3.88;;
49972;SDS011;71845;49.798;10.968;2024-01-16T12:25:51;8.10;;;3.45;;
49972;SDS011;71845;49.798;10.968;2024-01-16T12:28:20;7.10;;;3.15;;
49972;SDS011;71845;49.798;10.968;2024-01-16T12:30:48;11.48;;;5.05;;
49972;SDS011;71845;49.798;10.968;2024-01-16T12:33:21;12.50;;;5.20;;
49972;SDS011;71845;49.798;10.968;2024-01-16T12:35:48;10.30;;;5.28;;
49972;SDS011;71845;49.798;10.968;2024-01-16T12:38:15;8.23;;;3.30;;
49972;SDS011;71845;49.798;10.968;2024-01-16T12:40:44;9.35;;;4.38;;
49972;SDS011;71845;49.798;10.968;2024-01-16T12:43:13;9.13;;;3.75;;
49972;SDS011;71845;49.798;10.968;2024-01-16T12:45:41;9.23;;;4.05;;
49972;SDS011;71845;49.798;10.968;2024-01-16T12:48:09;7.95;;;3.35;;
49972;SDS011;71845;49.798;10.968;2024-01-16T12:50:37;6.15;;;3.63;;
49972;SDS011;71845;49.798;10.968;2024-01-16T12:53:04;6.22;;;3.22;;
49972;SDS011;71845;49.798;10.968;2024-01-16T12:55:33;7.50;;;3.63;;
49972;SDS011;71845;49.798;10.968;2024-01-16T12:58:16;8.80;;;3.00;;
49972;SDS011;71845;49.798;10.968;2024-01-16T13:00:43;8.63;;;3.17;;
49972;SDS011;71845;49.798;10.968;2024-01-16T13:03:17;5.20;;;3.03;;
49972;SDS011;71845;49.798;10.968;2024-01-16T13:05:45;5.22;;;3.08;;
49972;SDS011;71845;49.798;10.968;2024-01-16T13:08:20;8.68;;;3.20;;
49972;SDS011;71845;49.798;10.968;2024-01-16T13:10:52;6.65;;;3.17;;
49972;SDS011;71845;49.798;10.968;2024-01-16T13:13:28;7.45;;;3.13;;
49972;SDS011;71845;49.798;10.968;2024-01-16T13:15:54;8.55;;;3.65;;
49972;SDS011;71845;49.798;10.968;2024-01-16T13:18:22;9.32;;;3.38;;
49972;SDS011;71845;49.798;10.968;2024-01-16T13:20:51;7.63;;;3.75;;
49972;SDS011;71845;49.798;10.968;2024-01-16T13:23:19;8.45;;;3.50;;
49972;SDS011;71845;49.798;10.968;2024-01-16T13:25:47;7.72;;;3.00;;
49972;SDS011;71845;49.798;10.968;2024-01-16T13:28:16;5.53;;;3.13;;
49972;SDS011;71845;49.798;10.968;2024-01-16T13:30:44;8.57;;;3.20;;
49972;SDS011;71845;49.798;10.968;2024-01-16T13:33:12;5.78;;;3.03;;
49972;SDS011;71845;49.798;10.968;2024-01-16T13:35:39;7.10;;;3.10;;
49972;SDS011;71845;49.798;10.968;2024-01-16T13:38:08;7.60;;;3.53;;
49972;SDS011;71845;49.798;10.968;2024-01-16T13:40:35;11.98;;;3.60;;
49972;SDS011;71845;49.798;10.968;2024-01-16T13:43:02;7.68;;;3.22;;
49972;SDS011;71845;49.798;10.968;2024-01-16T13:45:29;6.95;;;3.65;;
49972;SDS011;71845;49.798;10.968;2024-01-16T13:47:56;7.47;;;2.67;;
49972;SDS011;71845;49.798;10.968;2024-01-16T13:50:23;6.18;;;3.28;;
49972;SDS011;71845;49.798;10.968;2024-01-16T13:52:49;8.40;;;3.00;;
49972;SDS011;71845;49.798;10.968;2024-01-16T13:55:17;7.05;;;2.80;;
49972;SDS011;71845;49.798;10.968;2024-01-16T13:57:44;6.78;;;3.00;;
49972;SDS011;71845;49.798;10.968;2024-01-16T14:00:11;6.93;;;3.67;;
49972;SDS011;71845;49.798;10.968;2024-01-16T14:02:40;9.05;;;3.08;;
49972;SDS011;71845;49.798;10.968;2024-01-16T14:05:07;6.68;;;3.20;;
49972;SDS011;71845;49.798;10.968;2024-01-16T14:07:35;7.15;;;3.10;;
49972;SDS011;71845;49.798;10.968;2024-01-16T14:10:02;7.47;;;2.95;;
49972;SDS011;71845;49.798;10.968;2024-01-16T14:12:32;6.93;;;3.45;;
49972;SDS011;71845;49.798;10.968;2024-01-16T14:15:00;7.10;;;2.92;;
49972;SDS011;71845;49.798;10.968;2024-01-16T14:17:28;7.07;;;3.25;;
49972;SDS011;71845;49.798;10.968;2024-01-16T14:19:55;5.93;;;2.70;;
49972;SDS011;71845;49.798;10.968;2024-01-16T14:22:21;7.30;;;2.97;;
49972;SDS011;71845;49.798;10.968;2024-01-16T14:24:49;6.60;;;3.20;;
49972;SDS011;71845;49.798;10.968;2024-01-16T14:27:16;6.35;;;2.78;;
49972;SDS011;71845;49.798;10.968;2024-01-16T14:29:44;11.07;;;2.90;;
49972;SDS011;71845;49.798;10.968;2024-01-16T14:32:10;6.07;;;3.13;;
49972;SDS011;71845;49.798;10.968;2024-01-16T14:34:37;6.38;;;2.53;;
49972;SDS011;71845;49.798;10.968;2024-01-16T14:37:03;7.03;;;3.00;;
49972;SDS011;71845;49.798;10.968;2024-01-16T14:39:30;6.47;;;2.63;;